createdAt,value
2022-08-21T00:00:44.182Z,100682.44
2022-08-21T00:03:14.750Z,100699.78
2022-08-21T00:05:50.335Z,100710.25
2022-08-21T00:08:20.296Z,100702.59
2022-08-21T00:10:50.749Z,100711.34
2022-08-21T00:13:21.758Z,100696.59
2022-08-21T00:15:51.991Z,100706.91
2022-08-21T00:18:22.031Z,100706.28
2022-08-21T00:20:53.636Z,100700.44
2022-08-21T00:23:22.900Z,100710.59
2022-08-21T00:25:52.000Z,100697.88
2022-08-21T00:28:21.437Z,100700.56
2022-08-21T00:30:50.616Z,100705.84
2022-08-21T00:33:19.763Z,100702.34
2022-08-21T00:35:49.201Z,100700.56
2022-08-21T00:38:21.300Z,100712.78
2022-08-21T00:40:53.662Z,100708.41
2022-08-21T00:43:26.657Z,100702.44
2022-08-21T00:45:56.407Z,100699.09
2022-08-21T00:48:28.845Z,100686.94
2022-08-21T00:51:02.605Z,100694.03
2022-08-21T00:53:34.661Z,100693.22
2022-08-21T00:56:06.780Z,100693.25
2022-08-21T00:58:37.910Z,100696.69
2022-08-21T01:01:09.852Z,100701.09
2022-08-21T01:03:39.856Z,100688.31
2022-08-21T01:06:15.503Z,100691.75
2022-08-21T01:08:47.810Z,100716.88
2022-08-21T01:11:18.187Z,100709.06
2022-08-21T01:13:48.972Z,100714.28
2022-08-21T01:16:24.056Z,100716.78
2022-08-21T01:18:54.120Z,100708.78
2022-08-21T01:21:28.387Z,100706.22
2022-08-21T01:23:59.587Z,100705.28
2022-08-21T01:26:33.932Z,100704.53
2022-08-21T01:29:07.804Z,100697.72
2022-08-21T01:31:37.717Z,100701.44
2022-08-21T01:34:07.616Z,100694.53
2022-08-21T01:36:39.462Z,100701.56
2022-08-21T01:39:09.840Z,100704.91
2022-08-21T01:41:38.985Z,100696.38
2022-08-21T01:44:08.436Z,100691.44
2022-08-21T01:46:38.049Z,100700.06
2022-08-21T01:49:08.145Z,100685.50
2022-08-21T01:51:39.216Z,100699.22
2022-08-21T01:54:08.505Z,100695.00
2022-08-21T01:56:40.703Z,100691.44
2022-08-21T01:59:10.344Z,100698.47
2022-08-21T02:01:40.065Z,100703.63
2022-08-21T02:04:10.638Z,100712.44
2022-08-21T02:06:41.849Z,100702.94
2022-08-21T02:09:14.577Z,100708.16
2022-08-21T02:11:45.136Z,100700.34
2022-08-21T02:14:32.392Z,100671.91
2022-08-21T02:17:05.311Z,100705.44
2022-08-21T02:19:40.709Z,100695.16
2022-08-21T02:22:13.671Z,100699.41
2022-08-21T02:24:53.851Z,100696.75
2022-08-21T02:27:26.786Z,100706.28
2022-08-21T02:29:56.510Z,100710.59
2022-08-21T02:32:26.699Z,100711.50
2022-08-21T02:34:56.210Z,100713.22
2022-08-21T02:37:27.589Z,100711.38
2022-08-21T02:39:58.647Z,100707.97
2022-08-21T02:42:28.238Z,100713.91
2022-08-21T02:44:58.057Z,100706.91
2022-08-21T02:47:27.182Z,100715.44
2022-08-21T02:49:56.392Z,100713.81
2022-08-21T02:52:27.743Z,100713.69
2022-08-21T02:54:57.149Z,100717.84
2022-08-21T02:57:26.277Z,100723.91
2022-08-21T02:59:55.864Z,100709.81
2022-08-21T03:02:26.575Z,100707.16
2022-08-21T03:04:56.446Z,100705.28
2022-08-21T03:07:27.724Z,100713.84
2022-08-21T03:09:56.893Z,100714.66
2022-08-21T03:12:29.669Z,100711.09
2022-08-21T03:14:59.407Z,100712.66
2022-08-21T03:17:29.735Z,100716.09
2022-08-21T03:19:59.969Z,100710.66
2022-08-21T03:22:32.686Z,100708.66
2022-08-21T03:25:06.381Z,100705.94
2022-08-21T03:27:37.000Z,100704.09
2022-08-21T03:30:10.860Z,100708.34
2022-08-21T03:32:42.215Z,100700.59
2022-08-21T03:35:12.519Z,100728.16
2022-08-21T03:37:44.247Z,100729.69
2022-08-21T03:40:15.325Z,100699.47
2022-08-21T03:42:45.834Z,100738.81
2022-08-21T03:45:15.299Z,100728.97
2022-08-21T03:47:54.035Z,100718.59
2022-08-21T03:50:23.454Z,100730.47
2022-08-21T03:52:54.625Z,100734.72
2022-08-21T03:55:24.089Z,100745.03
2022-08-21T03:57:53.867Z,100725.78
2022-08-21T04:00:23.965Z,100723.00
2022-08-21T04:02:53.571Z,100723.84
2022-08-21T04:05:30.690Z,100731.50
2022-08-21T04:08:08.547Z,100724.25
2022-08-21T04:10:40.343Z,100724.91
2022-08-21T04:13:10.576Z,100711.81
2022-08-21T04:15:39.739Z,100720.16
2022-08-21T04:18:08.937Z,100726.69
2022-08-21T04:20:38.167Z,100712.59
2022-08-21T04:23:10.053Z,100717.56
2022-08-21T04:25:39.345Z,100722.53
2022-08-21T04:28:08.418Z,100721.53
2022-08-21T04:30:38.259Z,100719.63
2022-08-21T04:33:07.908Z,100717.03
2022-08-21T04:35:37.090Z,100729.00
2022-08-21T04:38:06.254Z,100720.19
2022-08-21T04:40:37.417Z,100735.13
2022-08-21T04:43:10.632Z,100728.94
2022-08-21T04:45:42.792Z,100721.75
2022-08-21T04:48:14.391Z,100694.25
2022-08-21T04:50:46.048Z,100729.19
2022-08-21T04:53:19.158Z,100727.56
2022-08-21T04:55:51.749Z,100730.84
2022-08-21T04:58:23.325Z,100731.88
2022-08-21T05:00:56.797Z,100707.91
2022-08-21T05:03:26.899Z,100719.91
2022-08-21T05:05:55.972Z,100725.03
2022-08-21T05:08:28.670Z,100725.72
2022-08-21T05:11:00.743Z,100726.44
2022-08-21T05:13:30.638Z,100718.31
2022-08-21T05:15:59.837Z,100715.34
2022-08-21T05:18:31.382Z,100720.28
2022-08-21T05:21:01.041Z,100717.34
2022-08-21T05:23:30.116Z,100712.09
2022-08-21T05:26:01.649Z,100707.63
2022-08-21T05:28:31.403Z,100704.09
2022-08-21T05:31:00.505Z,100717.00
2022-08-21T05:33:29.851Z,100710.06
2022-08-21T05:36:00.752Z,100711.53
2022-08-21T05:38:30.187Z,100709.72
2022-08-21T05:41:01.352Z,100708.84
2022-08-21T05:43:30.507Z,100696.59
2022-08-21T05:45:59.617Z,100707.84
2022-08-21T05:48:28.819Z,100699.34
2022-08-21T05:50:58.022Z,100704.91
2022-08-21T05:53:28.069Z,100713.47
2022-08-21T05:55:57.176Z,100711.50
2022-08-21T05:58:28.583Z,100711.09
2022-08-21T06:00:59.240Z,100704.75
2022-08-21T06:03:31.185Z,100708.19
2022-08-21T06:06:01.350Z,100706.25
2022-08-21T06:08:30.767Z,100704.28
2022-08-21T06:11:02.136Z,100697.00
2022-08-21T06:13:33.351Z,100696.78
2022-08-21T06:16:09.309Z,100686.03
2022-08-21T06:18:40.104Z,100692.06
2022-08-21T06:21:11.927Z,100679.81
2022-08-21T06:23:41.278Z,100695.78
2022-08-21T06:26:12.564Z,100687.72
2022-08-21T06:28:44.488Z,100689.31
2022-08-21T06:31:16.409Z,100683.81
2022-08-21T06:33:46.406Z,100686.22
2022-08-21T06:36:16.107Z,100689.38
2022-08-21T06:38:51.678Z,100699.53
2022-08-21T06:41:23.809Z,100686.91
2022-08-21T06:43:56.015Z,100676.44
2022-08-21T06:46:25.723Z,100681.97
2022-08-21T06:48:55.121Z,100685.91
2022-08-21T06:51:26.212Z,100683.69
2022-08-21T06:53:55.437Z,100674.47
2022-08-21T06:56:24.698Z,100673.88
2022-08-21T06:58:55.961Z,100685.28
2022-08-21T07:01:28.184Z,100688.53
2022-08-21T07:03:58.354Z,100673.56
2022-08-21T07:06:27.609Z,100687.00
2022-08-21T07:08:59.015Z,100676.78
2022-08-21T07:11:28.822Z,100674.00
2022-08-21T07:14:00.002Z,100686.06
2022-08-21T07:16:29.423Z,100674.47
2022-08-21T07:19:10.031Z,100661.88
2022-08-21T07:21:40.474Z,100656.78
2022-08-21T07:24:09.783Z,100669.19
2022-08-21T07:26:39.326Z,100654.81
2022-08-21T07:29:10.476Z,100652.09
2022-08-21T07:31:39.798Z,100666.78
2022-08-21T07:34:08.961Z,100656.16
2022-08-21T07:36:38.209Z,100657.94
2022-08-21T07:39:09.114Z,100654.06
2022-08-21T07:41:38.170Z,100655.94
2022-08-21T07:44:10.384Z,100659.22
2022-08-21T07:46:43.933Z,100663.03
2022-08-21T07:49:13.174Z,100656.59
2022-08-21T07:51:42.554Z,100650.09
2022-08-21T07:54:11.793Z,100649.75
2022-08-21T07:56:46.470Z,100642.28
2022-08-21T07:59:15.670Z,100639.13
2022-08-21T08:01:46.873Z,100654.34
2022-08-21T08:04:16.926Z,100647.56
2022-08-21T08:06:46.343Z,100645.56
2022-08-21T08:09:15.796Z,100628.56
2022-08-21T08:11:46.182Z,100618.50
2022-08-21T08:14:16.232Z,100632.53
2022-08-21T08:16:47.266Z,100632.06
2022-08-21T08:19:16.482Z,100605.47
2022-08-21T08:21:45.689Z,100612.34
2022-08-21T08:24:18.415Z,100624.78
2022-08-21T08:26:53.914Z,100589.56
2022-08-21T08:29:23.915Z,100604.28
2022-08-21T08:31:55.178Z,100602.28
2022-08-21T08:34:25.456Z,100593.41
2022-08-21T08:36:54.993Z,100601.75
2022-08-21T08:39:26.978Z,100600.25
2022-08-21T08:42:32.850Z,100594.41
2022-08-21T08:45:00.290Z,100578.38
2022-08-21T08:47:34.441Z,100584.66
2022-08-21T08:50:07.366Z,100579.72
2022-08-21T08:52:39.702Z,100592.75
2022-08-21T08:55:15.374Z,100583.38
2022-08-21T08:57:50.301Z,100583.47
2022-08-21T09:00:22.585Z,100585.75
2022-08-21T09:02:57.637Z,100590.28
2022-08-21T09:05:29.189Z,100583.47
2022-08-21T09:08:09.385Z,100591.88
2022-08-21T09:10:49.395Z,100598.97
2022-08-21T09:13:26.727Z,100589.31
2022-08-21T09:16:02.784Z,100590.63
2022-08-21T09:18:46.186Z,100589.88
2022-08-21T09:21:23.600Z,100593.16
2022-08-21T09:24:02.997Z,100587.00
2022-08-21T09:26:38.102Z,100584.28
2022-08-21T09:29:09.733Z,100596.28
2022-08-21T09:31:40.404Z,100593.28
2022-08-21T09:34:14.325Z,100586.06
2022-08-21T09:36:45.995Z,100594.16
2022-08-21T09:39:25.798Z,100576.00
2022-08-21T09:42:00.407Z,100580.31
2022-08-21T09:44:33.005Z,100586.16
2022-08-21T09:47:02.946Z,100552.22
2022-08-21T09:49:37.088Z,100576.09
2022-08-21T09:52:15.532Z,100578.31
2022-08-21T09:54:49.068Z,100582.53
2022-08-21T09:57:38.804Z,100586.06
2022-08-21T10:00:18.127Z,100582.00
2022-08-21T10:02:47.435Z,100583.00
2022-08-21T10:05:28.811Z,100576.81
2022-08-21T10:07:58.134Z,100587.53
2022-08-21T10:10:31.230Z,100586.28
2022-08-21T10:13:06.049Z,100578.53
2022-08-21T10:15:50.111Z,100576.16
2022-08-21T10:18:28.065Z,100575.78
2022-08-21T10:21:08.142Z,100572.66
2022-08-21T10:23:53.200Z,100578.19
2022-08-21T10:26:36.557Z,100564.78
2022-08-21T10:29:15.884Z,100561.81
2022-08-21T10:31:55.132Z,100556.56
2022-08-21T10:34:40.288Z,100566.88
2022-08-21T10:37:24.096Z,100561.88
2022-08-21T10:40:09.821Z,100560.19
2022-08-21T10:42:49.914Z,100553.16
2022-08-21T10:45:43.155Z,100557.34
2022-08-21T10:48:23.784Z,100553.81
2022-08-21T10:50:58.346Z,100554.72
2022-08-21T10:53:51.325Z,100565.19
2022-08-21T10:56:24.921Z,100549.59
2022-08-21T10:59:07.527Z,100549.13
2022-08-21T11:01:47.990Z,100533.28
2022-08-21T11:04:23.509Z,100528.47
2022-08-21T11:07:04.595Z,100541.47
2022-08-21T11:09:43.965Z,100541.78
2022-08-21T11:12:23.961Z,100535.31
2022-08-21T11:14:59.631Z,100541.81
2022-08-21T11:17:36.817Z,100540.16
2022-08-21T11:20:14.405Z,100537.63
2022-08-21T11:22:54.544Z,100528.28
2022-08-21T11:25:37.176Z,100528.28
2022-08-21T11:28:14.387Z,100531.06
2022-08-21T11:30:59.008Z,100537.44
2022-08-21T11:33:45.982Z,100542.13
2022-08-21T11:36:23.089Z,100549.56
2022-08-21T11:39:01.798Z,100549.56
2022-08-21T11:41:40.127Z,100541.47
2022-08-21T11:44:18.681Z,100540.56
2022-08-21T11:46:57.098Z,100540.75
2022-08-21T11:49:50.149Z,100549.69
2022-08-21T11:52:25.315Z,100536.34
2022-08-21T11:55:01.378Z,100531.66
2022-08-21T11:57:37.525Z,100533.38
2022-08-21T12:00:12.084Z,100536.16
2022-08-21T12:02:48.818Z,100535.13
2022-08-21T12:05:33.949Z,100542.53
2022-08-21T12:08:07.233Z,100542.09
2022-08-21T12:10:40.217Z,100534.53
2022-08-21T12:13:15.506Z,100540.81
2022-08-21T12:15:44.743Z,100537.81
2022-08-21T12:18:26.097Z,100540.72
2022-08-21T12:21:03.019Z,100526.47
2022-08-21T12:23:36.128Z,100526.38
2022-08-21T12:26:25.771Z,100523.03
2022-08-21T12:29:16.793Z,100514.59
2022-08-21T12:31:58.949Z,100517.25
2022-08-21T12:34:35.360Z,100521.94
2022-08-21T12:37:09.417Z,100524.69
2022-08-21T12:39:45.814Z,100526.19
2022-08-21T12:42:23.359Z,100521.97
2022-08-21T12:44:59.135Z,100523.50
2022-08-21T12:47:34.040Z,100514.06
2022-08-21T13:07:48.937Z,100513.00
2022-08-21T13:10:23.314Z,100505.09
2022-08-21T13:12:53.732Z,100508.38
2022-08-21T13:15:33.172Z,100509.41
2022-08-21T13:18:04.642Z,100518.34
2022-08-21T13:20:38.091Z,100518.00
2022-08-21T13:23:22.843Z,100499.75
2022-08-21T13:25:52.749Z,100515.22
2022-08-21T13:28:21.974Z,100511.16
2022-08-21T13:30:53.724Z,100517.34
2022-08-21T13:33:36.454Z,100507.69
2022-08-21T13:36:12.458Z,100503.34
2022-08-21T13:38:45.314Z,100500.97
2022-08-21T13:41:23.254Z,100487.06
2022-08-21T13:44:06.678Z,100490.16
2022-08-21T13:46:38.498Z,100489.97
2022-08-21T13:49:09.236Z,100496.97
2022-08-21T13:51:39.175Z,100499.63
2022-08-21T13:54:25.300Z,100506.63
2022-08-21T13:56:56.187Z,100498.16
2022-08-21T13:59:31.025Z,100508.09
2022-08-21T14:02:02.664Z,100491.09
2022-08-21T14:04:38.761Z,100504.09
2022-08-21T14:07:20.844Z,100492.59
2022-08-21T14:09:52.292Z,100497.50
2022-08-21T14:12:26.350Z,100488.16
2022-08-21T14:14:58.063Z,100483.06
2022-08-21T14:17:33.711Z,100483.41
2022-08-21T14:20:04.131Z,100468.13
2022-08-21T14:22:41.826Z,100470.91
2022-08-21T14:25:16.621Z,100476.31
2022-08-21T14:27:51.944Z,100473.44
2022-08-21T14:30:23.793Z,100469.97
2022-08-21T14:32:53.003Z,100480.97
2022-08-21T14:35:23.817Z,100492.66
2022-08-21T14:37:54.943Z,100476.41
2022-08-21T14:40:27.968Z,100491.16
2022-08-21T14:42:58.781Z,100485.75
2022-08-21T14:45:30.881Z,100478.00
2022-08-21T14:48:01.454Z,100490.84
2022-08-21T14:50:30.610Z,100486.38
2022-08-21T14:53:00.962Z,100476.84
2022-08-21T14:55:53.135Z,100491.25
2022-08-21T14:58:23.516Z,100496.13
2022-08-21T15:00:53.169Z,100482.84
2022-08-21T15:03:24.365Z,100484.00
2022-08-21T15:05:54.085Z,100486.97
2022-08-21T15:08:23.458Z,100476.69
2022-08-21T15:11:11.229Z,100488.31
2022-08-21T15:13:42.372Z,100488.19
2022-08-21T15:16:12.004Z,100473.59
2022-08-21T15:18:42.502Z,100476.69
2022-08-21T15:21:12.075Z,100477.84
2022-08-21T15:23:43.910Z,100480.09
2022-08-21T15:26:17.149Z,100473.00
2022-08-21T15:28:46.626Z,100468.59
2022-08-21T15:31:16.031Z,100486.56
2022-08-21T15:33:45.584Z,100486.13
2022-08-21T15:36:14.929Z,100483.78
2022-08-21T15:38:44.457Z,100479.97
2022-08-21T15:41:16.652Z,100484.44
2022-08-21T15:43:49.308Z,100489.84
2022-08-21T15:46:21.263Z,100483.22
2022-08-21T15:48:52.846Z,100474.88
2022-08-21T15:51:23.839Z,100471.56
2022-08-21T15:53:52.981Z,100479.69
2022-08-21T15:56:28.024Z,100475.63
2022-08-21T15:59:05.899Z,100466.34
2022-08-21T16:01:45.001Z,100464.00
2022-08-21T16:04:26.098Z,100461.13
2022-08-21T16:06:59.983Z,100482.41
2022-08-21T16:09:37.447Z,100478.03
2022-08-21T16:12:09.748Z,100475.16
2022-08-21T16:14:39.638Z,100479.72
2022-08-21T16:17:09.197Z,100482.31
2022-08-21T16:19:40.295Z,100480.38
2022-08-21T16:22:12.230Z,100476.59
2022-08-21T16:24:41.996Z,100454.13
2022-08-21T16:27:13.689Z,100480.63
2022-08-21T16:29:44.753Z,100475.81
2022-08-21T16:32:14.992Z,100464.91
2022-08-21T16:34:47.734Z,100467.94
2022-08-21T16:37:23.861Z,100466.66
2022-08-21T16:39:53.891Z,100465.44
2022-08-21T16:42:28.880Z,100473.44
2022-08-21T16:44:59.087Z,100470.88
2022-08-21T16:47:28.401Z,100449.09
2022-08-21T16:49:58.113Z,100470.03
2022-08-21T16:52:27.607Z,100469.56
2022-08-21T16:54:57.139Z,100472.28
2022-08-21T16:57:29.822Z,100474.94
2022-08-21T16:59:59.187Z,100484.06
2022-08-21T17:02:33.589Z,100478.59
2022-08-21T17:05:03.162Z,100483.47
2022-08-21T17:07:36.841Z,100483.78
2022-08-21T17:10:09.691Z,100480.50
2022-08-21T17:12:43.395Z,100482.53
2022-08-21T17:15:21.471Z,100483.22
2022-08-21T17:17:51.300Z,100478.34
2022-08-21T17:20:21.590Z,100484.22
2022-08-21T17:22:51.566Z,100473.59
2022-08-21T17:25:21.093Z,100484.88
2022-08-21T17:27:53.110Z,100485.69
2022-08-21T17:30:23.050Z,100474.75
2022-08-21T17:32:56.051Z,100472.00
2022-08-21T17:35:25.342Z,100469.41
2022-08-21T17:37:54.646Z,100469.28
2022-08-21T17:40:24.359Z,100473.44
2022-08-21T17:42:55.653Z,100464.78
2022-08-21T17:45:26.086Z,100464.53
2022-08-21T17:47:58.939Z,100468.41
2022-08-21T17:50:28.466Z,100467.72
2022-08-21T17:53:01.245Z,100446.88
2022-08-21T17:55:31.371Z,100486.41
2022-08-21T17:58:03.473Z,100481.38
2022-08-21T18:00:33.913Z,100483.94
2022-08-21T18:03:07.385Z,100478.09
2022-08-21T18:05:37.106Z,100474.91
2022-08-21T18:08:06.386Z,100478.47
2022-08-21T18:10:35.920Z,100472.97
2022-08-21T18:13:09.830Z,100466.06
2022-08-21T18:15:39.285Z,100472.81
2022-08-21T18:18:09.009Z,100472.81
2022-08-21T18:20:38.714Z,100476.63
2022-08-21T18:23:07.998Z,100477.25
2022-08-21T18:25:37.792Z,100478.19
2022-08-21T18:28:12.303Z,100476.47
2022-08-21T18:30:44.181Z,100472.75
2022-08-21T18:33:15.525Z,100471.81
2022-08-21T18:35:45.148Z,100477.25
2022-08-21T18:38:14.821Z,100461.13
2022-08-21T18:40:51.498Z,100473.91
2022-08-21T18:43:26.557Z,100469.00
2022-08-21T18:46:00.223Z,100469.44
2022-08-21T18:48:32.363Z,100468.94
2022-08-21T18:51:02.468Z,100476.13
2022-08-21T18:53:31.740Z,100474.38
2022-08-21T18:56:04.888Z,100472.41
2022-08-21T18:58:37.273Z,100471.00
2022-08-21T19:01:06.796Z,100481.13
2022-08-21T19:03:35.930Z,100471.09
2022-08-21T19:06:05.628Z,100467.72
2022-08-21T19:08:41.192Z,100452.41
2022-08-21T19:14:03.229Z,100478.34
2022-08-21T19:16:32.250Z,100488.53
2022-08-21T19:19:02.418Z,100476.56
2022-08-21T19:21:32.001Z,100476.09
2022-08-21T19:24:01.197Z,100476.59
2022-08-21T19:26:47.725Z,100483.13
2022-08-21T19:29:21.843Z,100491.41
2022-08-21T19:32:08.697Z,100482.09
2022-08-21T19:34:40.650Z,100479.22
2022-08-21T19:37:10.577Z,100481.50
2022-08-21T19:39:44.848Z,100471.41
2022-08-21T19:42:20.999Z,100472.25
2022-08-21T19:44:57.399Z,100484.94
2022-08-21T19:47:29.464Z,100474.47
2022-08-21T19:52:51.713Z,100480.38
2022-08-21T19:55:23.254Z,100476.59
2022-08-21T19:57:53.564Z,100475.97
2022-08-21T20:00:25.254Z,100481.56
2022-08-21T20:02:55.137Z,100480.50
2022-08-21T20:05:24.354Z,100485.84
2022-08-21T20:07:53.687Z,100487.94
2022-08-21T20:10:23.209Z,100478.09
2022-08-21T20:12:52.735Z,100478.78
2022-08-21T20:15:24.703Z,100464.84
2022-08-21T20:17:54.001Z,100483.88
2022-08-21T20:20:23.633Z,100476.66
2022-08-21T20:22:53.073Z,100507.94
2022-08-21T20:25:22.475Z,100486.97
2022-08-21T20:27:52.273Z,100494.34
2022-08-21T20:30:23.497Z,100490.28
2022-08-21T20:32:55.262Z,100494.25
2022-08-21T20:35:25.176Z,100491.59
2022-08-21T20:37:58.819Z,100492.38
2022-08-21T20:40:32.772Z,100493.56
2022-08-21T20:43:03.241Z,100490.53
2022-08-21T20:45:36.084Z,100492.59
2022-08-21T20:48:11.253Z,100489.56
2022-08-21T20:50:46.326Z,100488.72
2022-08-21T20:53:21.698Z,100500.06
2022-08-21T20:55:52.860Z,100504.91
2022-08-21T20:58:31.425Z,100504.41
2022-08-21T21:01:08.282Z,100504.56
2022-08-21T21:03:43.298Z,100503.72
2022-08-21T21:06:16.194Z,100496.31
2022-08-21T21:08:50.249Z,100506.94
2022-08-21T21:11:24.797Z,100459.81
2022-08-21T21:13:58.388Z,100507.22
2022-08-21T21:16:34.975Z,100497.78
2022-08-21T21:19:11.917Z,100492.91
2022-08-21T21:21:51.502Z,100495.59
2022-08-21T21:24:27.568Z,100497.56
2022-08-21T21:30:01.602Z,100501.84
2022-08-21T21:32:35.616Z,100495.25
2022-08-21T21:35:07.385Z,100493.66
2022-08-21T21:37:44.073Z,100494.56
2022-08-21T21:40:36.789Z,100498.63
2022-08-21T21:43:17.300Z,100495.75
2022-08-21T21:46:07.061Z,100491.19
2022-08-21T21:48:57.852Z,100494.50
2022-08-21T21:51:42.436Z,100491.25
2022-08-21T21:54:26.425Z,100499.16
2022-08-21T21:57:04.953Z,100503.44
2022-08-21T21:59:51.263Z,100503.28
2022-08-21T22:02:33.989Z,100492.66
2022-08-21T22:05:09.066Z,100490.91
2022-08-21T22:07:43.031Z,100485.03
2022-08-21T22:10:30.773Z,100496.31
2022-08-21T22:13:26.276Z,100499.88
2022-08-21T22:15:56.546Z,100490.09
2022-08-21T22:18:31.387Z,100504.63
2022-08-21T22:21:06.958Z,100497.66
2022-08-21T22:23:40.506Z,100490.78
2022-08-21T22:26:16.609Z,100504.69
2022-08-21T22:28:49.453Z,100489.44
2022-08-21T22:31:23.118Z,100499.00
2022-08-21T22:34:05.370Z,100497.97
2022-08-21T22:36:40.774Z,100498.66
2022-08-21T22:39:18.473Z,100493.41
2022-08-21T22:41:51.368Z,100492.53
2022-08-21T22:44:23.725Z,100492.41
2022-08-21T22:46:59.158Z,100500.06
2022-08-21T22:49:38.593Z,100502.56
2022-08-21T22:52:22.541Z,100495.84
2022-08-21T22:54:54.037Z,100498.53
2022-08-21T22:57:28.659Z,100489.91
2022-08-21T23:00:02.649Z,100482.16
2022-08-21T23:02:41.050Z,100492.66
2022-08-21T23:05:24.699Z,100500.41
2022-08-21T23:07:56.569Z,100480.75
2022-08-21T23:10:32.913Z,100489.50
2022-08-21T23:13:09.305Z,100508.53
2022-08-21T23:16:03.526Z,100495.47
2022-08-21T23:18:45.454Z,100494.63
2022-08-21T23:21:25.190Z,100501.03
2022-08-21T23:24:19.495Z,100492.66
2022-08-21T23:26:58.241Z,100508.66
2022-08-21T23:29:38.626Z,100489.69
2022-08-21T23:32:25.124Z,100501.78
2022-08-21T23:35:12.845Z,100510.47
2022-08-21T23:37:51.423Z,100508.66
2022-08-21T23:40:37.192Z,100505.34
2022-08-21T23:43:24.600Z,100505.25
2022-08-21T23:46:08.825Z,100511.28
2022-08-21T23:48:49.270Z,100515.72
2022-08-21T23:54:26.597Z,100514.13
2022-08-21T23:57:10.593Z,100511.56
2022-08-21T23:59:49.534Z,100514.25
